createdAt,value
2023-01-25T00:00:31.981Z,-2.31
2023-01-25T00:06:01.817Z,-2.34
2023-01-25T00:11:04.941Z,-2.38
2023-01-25T00:16:07.994Z,-2.42
2023-01-25T00:21:23.700Z,-2.48
2023-01-25T00:26:27.051Z,-2.53
2023-01-25T00:31:44.012Z,-2.52
2023-01-25T00:36:50.058Z,-2.56
2023-01-25T00:41:53.221Z,-2.60
2023-01-25T00:46:56.020Z,-2.60
2023-01-25T00:51:59.379Z,-2.57
2023-01-25T00:57:02.206Z,-2.56
2023-01-25T01:02:05.511Z,-2.58
2023-01-25T01:07:08.326Z,-2.59
2023-01-25T01:12:11.133Z,-2.59
2023-01-25T01:17:13.991Z,-2.59
2023-01-25T01:22:16.794Z,-2.61
2023-01-25T01:27:19.548Z,-2.63
2023-01-25T01:32:22.479Z,-2.62
2023-01-25T01:37:25.314Z,-2.64
2023-01-25T01:42:28.167Z,-2.68
2023-01-25T01:47:46.064Z,-2.71
2023-01-25T01:52:49.807Z,-2.72
2023-01-25T01:57:59.396Z,-2.73
2023-01-25T02:03:02.421Z,-2.80
2023-01-25T02:08:06.813Z,-2.89
2023-01-25T02:13:10.604Z,-2.97
2023-01-25T02:18:14.242Z,-3.03
2023-01-25T02:23:35.887Z,-3.07
2023-01-25T02:28:43.690Z,-3.12
2023-01-25T02:33:46.492Z,-3.12
2023-01-25T02:38:57.299Z,-3.10
2023-01-25T02:44:02.832Z,-3.09
2023-01-25T02:49:08.804Z,-3.17
2023-01-25T02:54:13.438Z,-3.19
2023-01-25T02:59:16.257Z,-3.16
2023-01-25T03:04:19.006Z,-3.17
2023-01-25T03:09:23.036Z,-3.24
2023-01-25T03:14:25.912Z,-3.27
2023-01-25T03:19:28.792Z,-3.25
2023-01-25T03:24:31.632Z,-3.25
2023-01-25T03:29:34.380Z,-3.28
2023-01-25T03:34:37.191Z,-3.31
2023-01-25T03:39:40.940Z,-3.29
2023-01-25T03:44:43.718Z,-3.30
2023-01-25T03:49:46.492Z,-3.32
2023-01-25T03:54:49.312Z,-3.32
2023-01-25T03:59:52.090Z,-3.32
2023-01-25T04:04:54.900Z,-3.30
2023-01-25T04:09:57.672Z,-3.25
2023-01-25T04:15:00.486Z,-3.17
2023-01-25T04:20:03.486Z,-3.16
2023-01-25T04:25:08.306Z,-3.19
2023-01-25T04:30:11.714Z,-3.25
2023-01-25T04:35:14.671Z,-3.25
2023-01-25T04:40:17.526Z,-3.25
2023-01-25T04:45:20.276Z,-3.26
2023-01-25T04:50:23.371Z,-3.23
2023-01-25T04:55:26.136Z,-3.24
2023-01-25T05:00:29.892Z,-3.30
2023-01-25T05:05:32.772Z,-3.32
2023-01-25T05:10:35.511Z,-3.23
2023-01-25T05:15:38.376Z,-2.79
2023-01-25T05:20:41.152Z,-2.25
2023-01-25T05:26:02.695Z,-1.88
2023-01-25T05:31:05.740Z,-1.62
2023-01-25T05:36:08.530Z,-1.53
2023-01-25T05:41:11.266Z,-1.46
2023-01-25T05:46:14.470Z,-1.33
2023-01-25T05:51:17.253Z,-1.24
2023-01-25T05:56:19.967Z,-1.24
2023-01-25T06:01:23.533Z,-1.18
2023-01-25T06:06:26.292Z,-1.09
2023-01-25T06:11:29.016Z,-0.98
2023-01-25T06:16:31.828Z,-0.89
2023-01-25T06:21:37.172Z,-0.84
2023-01-25T06:26:39.982Z,-0.88
2023-01-25T06:31:42.897Z,-0.91
2023-01-25T06:36:45.815Z,-0.99
2023-01-25T06:41:48.622Z,-1.11
2023-01-25T06:46:51.467Z,-1.13
2023-01-25T06:51:54.759Z,-0.88
2023-01-25T06:56:57.730Z,-0.59
2023-01-25T07:02:00.504Z,-0.54
2023-01-25T07:07:03.404Z,-0.54
2023-01-25T07:12:06.637Z,-0.54
2023-01-25T07:17:09.371Z,-0.56
2023-01-25T07:22:12.131Z,-0.60
2023-01-25T07:27:14.825Z,-0.50
2023-01-25T07:32:17.619Z,-0.34
2023-01-25T07:37:20.777Z,-0.24
2023-01-25T07:42:23.659Z,-0.19
2023-01-25T07:47:27.143Z,-0.08
2023-01-25T07:52:30.065Z,0.03
2023-01-25T07:57:32.897Z,-0.12
2023-01-25T08:02:35.695Z,-0.22
2023-01-25T08:07:38.564Z,-0.16
2023-01-25T08:12:46.276Z,-0.16
2023-01-25T08:17:49.042Z,-0.09
2023-01-25T08:22:55.223Z,-0.03
2023-01-25T08:28:00.827Z,-0.02
2023-01-25T08:33:03.626Z,0.08
2023-01-25T08:38:06.375Z,0.15
2023-01-25T08:43:09.122Z,0.23
2023-01-25T08:48:15.712Z,0.39
2023-01-25T08:53:18.513Z,0.39
2023-01-25T08:58:22.541Z,0.30
2023-01-25T09:03:25.375Z,0.20
2023-01-25T09:08:28.170Z,0.15
2023-01-25T09:13:31.439Z,0.16
2023-01-25T09:18:37.496Z,0.12
2023-01-25T09:23:50.643Z,0.03
2023-01-25T09:28:54.875Z,0.06
2023-01-25T09:33:58.543Z,0.13
2023-01-25T09:39:01.572Z,-0.05
2023-01-25T09:44:32.212Z,-0.23
2023-01-25T09:50:12.780Z,-0.33
2023-01-25T09:55:19.223Z,-0.45
2023-01-25T10:00:29.883Z,-0.53
2023-01-25T10:05:45.968Z,-0.56
2023-01-25T10:10:58.825Z,-0.55
2023-01-25T10:16:24.583Z,-0.55
2023-01-25T10:21:39.290Z,-0.50
2023-01-25T10:26:48.449Z,-0.44
2023-01-25T10:31:55.225Z,-0.33
2023-01-25T10:37:11.481Z,-0.19
2023-01-25T10:42:16.670Z,-0.11
2023-01-25T10:47:26.807Z,-0.04
2023-01-25T10:52:31.953Z,0.03
2023-01-25T10:57:36.611Z,0.08
2023-01-25T11:02:41.852Z,-0.01
2023-01-25T11:07:46.078Z,-0.13
2023-01-25T11:13:07.757Z,-0.15
2023-01-25T11:18:24.339Z,-0.21
2023-01-25T11:23:28.743Z,-0.26
2023-01-25T11:28:31.586Z,-0.31
2023-01-25T11:33:34.466Z,-0.32
2023-01-25T11:38:44.088Z,-0.25
2023-01-25T11:43:56.358Z,-0.18
2023-01-25T11:49:14.259Z,-0.03
2023-01-25T11:54:34.573Z,0.08
2023-01-25T11:59:57.941Z,0.11
2023-01-25T12:05:22.538Z,0.06
2023-01-25T12:10:47.642Z,0.02
2023-01-25T12:16:10.360Z,-0.09
2023-01-25T12:21:30.530Z,-0.13
2023-01-25T12:26:55.869Z,-0.19
2023-01-25T12:32:14.792Z,-0.19
2023-01-25T12:37:25.727Z,-0.25
2023-01-25T12:42:47.520Z,-0.32
2023-01-25T12:48:01.869Z,-0.37
2023-01-25T12:53:20.504Z,-0.35
2023-01-25T12:59:05.557Z,-0.29
2023-01-25T13:04:47.432Z,-0.29
2023-01-25T13:10:14.125Z,-0.32
2023-01-25T13:15:40.414Z,-0.32
2023-01-25T13:20:43.195Z,-0.37
2023-01-25T13:25:45.991Z,-0.37
2023-01-25T13:30:53.408Z,-0.43
2023-01-25T13:35:56.209Z,-0.53
2023-01-25T13:41:15.683Z,-0.55
2023-01-25T13:46:24.544Z,-0.57
2023-01-25T13:51:33.814Z,-0.64
2023-01-25T13:56:37.563Z,-0.68
2023-01-25T14:01:40.669Z,-0.63
2023-01-25T14:06:45.201Z,-0.60
2023-01-25T14:11:57.929Z,-0.59
2023-01-25T14:17:19.419Z,-0.60
2023-01-25T14:22:30.385Z,-0.63
2023-01-25T14:27:42.192Z,-0.68
2023-01-25T14:32:44.991Z,-0.78
2023-01-25T14:37:47.761Z,-0.87
2023-01-25T14:42:52.969Z,-0.95
2023-01-25T14:47:59.408Z,-1.03
2023-01-25T14:53:21.051Z,-1.08
2023-01-25T14:58:25.574Z,-1.07
2023-01-25T15:03:30.865Z,-1.06
2023-01-25T15:08:39.255Z,-1.08
2023-01-25T15:13:42.076Z,-1.14
2023-01-25T15:18:52.213Z,-1.15
2023-01-25T15:23:57.391Z,-1.10
2023-01-25T15:29:22.326Z,-1.07
2023-01-25T15:34:29.348Z,-1.13
2023-01-25T15:39:32.814Z,-1.19
2023-01-25T15:44:35.620Z,-1.26
2023-01-25T15:49:39.751Z,-1.29
2023-01-25T15:54:51.755Z,-1.31
2023-01-25T15:59:56.776Z,-1.31
2023-01-25T16:05:00.038Z,-1.28
2023-01-25T16:10:02.872Z,-1.20
2023-01-25T16:15:06.215Z,-1.14
2023-01-25T16:20:18.398Z,-1.14
2023-01-25T16:25:23.571Z,-1.16
2023-01-25T16:30:29.285Z,-1.18
2023-01-25T16:35:35.214Z,-1.18
2023-01-25T16:40:39.935Z,-1.23
2023-01-25T16:45:45.356Z,-1.28
2023-01-25T16:50:50.834Z,-1.26
2023-01-25T16:55:53.584Z,-1.28
2023-01-25T17:00:57.499Z,-1.33
2023-01-25T17:06:00.975Z,-1.36
2023-01-25T17:11:05.714Z,-1.35
2023-01-25T17:16:08.715Z,-1.29
2023-01-25T17:21:14.624Z,-1.27
2023-01-25T17:26:19.841Z,-1.27
2023-01-25T17:31:28.058Z,-1.27
2023-01-25T17:36:31.030Z,-1.28
2023-01-25T17:41:34.116Z,-1.28
2023-01-25T17:46:37.711Z,-1.28
2023-01-25T17:51:40.520Z,-1.28
2023-01-25T17:56:43.405Z,-1.29
2023-01-25T18:01:46.321Z,-1.30
2023-01-25T18:06:49.678Z,-1.28
2023-01-25T18:11:52.437Z,-1.28
2023-01-25T18:16:55.419Z,-1.31
2023-01-25T18:22:00.317Z,-1.34
2023-01-25T18:27:17.854Z,-1.32
2023-01-25T18:32:21.337Z,-1.30
2023-01-25T18:37:29.894Z,-1.31
2023-01-25T18:42:32.728Z,-1.28
2023-01-25T18:47:35.781Z,-1.25
2023-01-25T18:52:40.582Z,-1.25
2023-01-25T18:57:44.390Z,-1.26
2023-01-25T19:02:47.632Z,-1.25
2023-01-25T19:07:50.834Z,-1.29
2023-01-25T19:12:55.158Z,-1.28
2023-01-25T19:17:57.911Z,-1.29
2023-01-25T19:23:01.990Z,-1.30
2023-01-25T19:28:04.763Z,-1.31
2023-01-25T19:33:09.848Z,-1.24
2023-01-25T19:38:14.104Z,-1.23
2023-01-25T19:43:18.456Z,-1.24
2023-01-25T19:48:21.177Z,-1.22
2023-01-25T19:53:24.277Z,-1.16
2023-01-25T19:58:27.539Z,-1.10
2023-01-25T20:03:32.995Z,-1.07
2023-01-25T20:08:38.846Z,-1.08
2023-01-25T20:13:43.144Z,-1.08
2023-01-25T20:18:48.169Z,-1.05
2023-01-25T20:23:53.421Z,-1.03
2023-01-25T20:28:58.151Z,-1.03
2023-01-25T20:34:12.043Z,-1.04
2023-01-25T20:39:17.566Z,-1.07
2023-01-25T20:44:21.255Z,-1.08
2023-01-25T20:49:24.047Z,-1.08
2023-01-25T20:54:26.768Z,-1.05
2023-01-25T20:59:29.523Z,-1.08
2023-01-25T21:04:34.674Z,-1.09
2023-01-25T21:09:37.428Z,-1.07
2023-01-25T21:14:40.189Z,-1.04
2023-01-25T21:19:43.270Z,-1.10
2023-01-25T21:24:46.028Z,-1.14
2023-01-25T21:29:48.804Z,-1.11
2023-01-25T21:34:51.703Z,-1.06
2023-01-25T21:39:54.446Z,-1.07
2023-01-25T21:45:35.887Z,-1.07
2023-01-25T21:50:57.711Z,-1.06
2023-01-25T21:56:00.446Z,-1.06
2023-01-25T22:01:04.761Z,-1.01
2023-01-25T22:06:07.938Z,-0.99
2023-01-25T22:11:11.295Z,-1.03
2023-01-25T22:16:14.565Z,-1.03
2023-01-25T22:21:25.700Z,-1.06
2023-01-25T22:26:39.540Z,-1.06
2023-01-25T22:31:43.103Z,-1.05
2023-01-25T22:36:46.688Z,-1.03
2023-01-25T22:41:50.473Z,-0.99
2023-01-25T22:46:54.030Z,-1.00
2023-01-25T22:51:56.777Z,-1.03
2023-01-25T22:57:00.655Z,-1.03
2023-01-25T23:02:03.453Z,-0.99
2023-01-25T23:07:12.596Z,-0.98
2023-01-25T23:12:15.633Z,-0.99
2023-01-25T23:17:42.551Z,-1.00
2023-01-25T23:22:45.261Z,-0.99
2023-01-25T23:27:49.553Z,-0.97
2023-01-25T23:32:52.339Z,-0.99
2023-01-25T23:37:55.081Z,-0.97
2023-01-25T23:42:57.827Z,-0.96
2023-01-25T23:48:00.566Z,-0.91
2023-01-25T23:53:06.739Z,-0.90
2023-01-25T23:58:10.078Z,-0.96
